createdAt,value
2019-02-10T00:02:45.019Z,64.30
2019-02-10T00:05:42.509Z,64.30
2019-02-10T00:08:18.979Z,64.20
2019-02-10T00:11:31.537Z,64.20
2019-02-10T00:22:32.694Z,64.90
2019-02-10T00:25:10.942Z,65.00
2019-02-10T00:28:18.292Z,65.00
2019-02-10T00:31:08.107Z,65.20
2019-02-10T00:33:55.301Z,65.40
2019-02-10T00:36:35.586Z,65.50
2019-02-10T00:39:13.211Z,65.70
2019-02-10T00:42:19.104Z,65.80
2019-02-10T00:44:52.517Z,65.80
2019-02-10T00:47:29.613Z,65.80
2019-02-10T00:51:16.570Z,65.90
2019-02-10T00:56:33.417Z,66.50
2019-02-10T00:59:25.891Z,66.10
2019-02-10T01:02:01.495Z,66.20
2019-02-10T01:04:36.116Z,66.40
2019-02-10T01:07:25.398Z,66.50
2019-02-10T01:10:01.444Z,66.50
2019-02-10T01:13:10.933Z,66.50
2019-02-10T01:15:41.870Z,66.60
2019-02-10T01:18:16.160Z,66.70
2019-02-10T01:23:40.515Z,66.70
2019-02-10T01:26:14.605Z,66.70
2019-02-10T01:29:20.871Z,66.80
2019-02-10T01:31:47.603Z,66.80
2019-02-10T01:34:32.860Z,66.80
2019-02-10T01:37:09.247Z,66.80
2019-02-10T01:39:49.982Z,66.80
2019-02-10T01:42:27.399Z,66.90
2019-02-10T01:45:01.925Z,66.90
2019-02-10T01:47:36.551Z,67.00
2019-02-10T01:50:19.579Z,66.90
2019-02-10T01:52:52.483Z,66.90
2019-02-10T01:55:26.114Z,66.80
2019-02-10T01:57:57.311Z,67.00
2019-02-10T02:00:28.140Z,67.00
2019-02-10T02:03:03.295Z,66.90
2019-02-10T02:05:36.378Z,66.80
2019-02-10T02:08:17.311Z,66.80
2019-02-10T02:10:50.977Z,67.60
2019-02-10T02:13:27.024Z,67.60
2019-02-10T02:15:59.088Z,67.70
2019-02-10T02:18:30.054Z,66.80
2019-02-10T02:21:01.066Z,66.90
2019-02-10T02:23:35.172Z,67.00
2019-02-10T02:26:08.141Z,66.90
2019-02-10T02:28:39.412Z,66.90
2019-02-10T02:31:10.555Z,66.90
2019-02-10T02:33:48.419Z,67.00
2019-02-10T02:36:22.795Z,67.00
2019-02-10T02:38:56.010Z,67.00
2019-02-10T02:41:34.255Z,67.10
2019-02-10T02:44:06.869Z,67.10
2019-02-10T02:46:38.286Z,67.00
2019-02-10T02:49:12.199Z,67.00
2019-02-10T02:51:45.775Z,67.00
2019-02-10T02:54:17.886Z,67.10
2019-02-10T02:56:50.755Z,67.00
2019-02-10T02:59:23.176Z,67.00
2019-02-10T03:02:00.831Z,66.90
2019-02-10T03:04:42.462Z,67.00
2019-02-10T03:07:22.255Z,67.10
2019-02-10T03:09:48.955Z,66.90
2019-02-10T03:12:25.739Z,66.90
2019-02-10T03:15:08.838Z,67.10
2019-02-10T03:17:41.356Z,67.10
2019-02-10T03:20:14.164Z,67.10
2019-02-10T03:22:47.604Z,67.00
2019-02-10T03:25:18.019Z,67.10
2019-02-10T03:27:49.956Z,67.00
2019-02-10T03:30:20.727Z,67.00
2019-02-10T03:32:52.815Z,67.00
2019-02-10T03:35:23.760Z,67.00
2019-02-10T03:38:02.725Z,67.00
2019-02-10T03:40:34.376Z,67.10
2019-02-10T03:43:05.733Z,67.20
2019-02-10T03:45:36.683Z,67.20
2019-02-10T03:48:09.353Z,67.30
2019-02-10T03:50:42.949Z,67.30
2019-02-10T03:53:13.986Z,67.30
2019-02-10T03:55:45.130Z,67.30
2019-02-10T03:58:16.409Z,67.40
2019-02-10T04:00:49.434Z,67.60
2019-02-10T04:03:20.655Z,67.70
2019-02-10T04:05:53.479Z,67.90
2019-02-10T04:08:28.164Z,67.90
2019-02-10T04:10:58.971Z,67.90
2019-02-10T04:13:31.684Z,68.20
2019-02-10T04:16:02.410Z,68.20
2019-02-10T04:18:35.170Z,68.20
2019-02-10T04:21:06.007Z,68.30
2019-02-10T04:23:40.326Z,68.40
2019-02-10T04:26:22.607Z,68.50
2019-02-10T04:28:52.463Z,68.40
2019-02-10T04:31:23.455Z,68.40
2019-02-10T04:33:55.639Z,68.60
2019-02-10T04:36:27.123Z,68.40
2019-02-10T04:39:01.645Z,68.60
2019-02-10T04:41:33.138Z,68.60
2019-02-10T04:44:05.770Z,68.50
2019-02-10T04:46:36.684Z,68.60
2019-02-10T04:49:12.347Z,68.60
2019-02-10T04:51:43.849Z,68.50
2019-02-10T04:54:15.190Z,68.30
2019-02-10T04:56:48.341Z,68.30
2019-02-10T04:59:19.287Z,68.20
2019-02-10T05:01:53.817Z,68.10
2019-02-10T05:04:26.226Z,68.00
2019-02-10T05:07:02.651Z,67.80
2019-02-10T05:09:39.626Z,67.90
2019-02-10T05:12:16.923Z,67.80
2019-02-10T05:14:47.859Z,67.50
2019-02-10T05:17:21.698Z,67.50
2019-02-10T05:19:54.974Z,67.40
2019-02-10T05:22:27.407Z,67.30
2019-02-10T05:25:00.648Z,67.20
2019-02-10T05:27:35.369Z,67.00
2019-02-10T05:30:11.162Z,67.10
2019-02-10T05:32:47.027Z,67.00
2019-02-10T05:35:23.207Z,66.90
2019-02-10T05:37:54.075Z,66.80
2019-02-10T05:40:24.928Z,66.60
2019-02-10T05:43:04.052Z,66.50
2019-02-10T05:46:08.660Z,66.40
2019-02-10T05:48:36.536Z,66.30
2019-02-10T05:51:12.887Z,66.20
2019-02-10T05:53:50.109Z,66.10
2019-02-10T05:56:28.139Z,66.10
2019-02-10T05:59:03.266Z,66.00
2019-02-10T06:02:28.660Z,65.90
2019-02-10T06:05:23.230Z,65.90
2019-02-10T06:08:13.184Z,65.60
2019-02-10T06:10:39.367Z,65.60
2019-02-10T06:13:10.368Z,65.60
2019-02-10T06:15:41.667Z,65.60
2019-02-10T06:18:12.684Z,65.50
2019-02-10T06:20:43.693Z,65.40
2019-02-10T06:23:15.767Z,65.40
2019-02-10T06:25:56.225Z,65.30
2019-02-10T06:28:36.681Z,65.10
2019-02-10T06:31:12.996Z,64.90
2019-02-10T06:33:43.950Z,64.40
2019-02-10T06:36:24.212Z,64.50
2019-02-10T06:38:55.795Z,64.50
2019-02-10T06:41:26.755Z,64.30
2019-02-10T06:43:57.635Z,64.00
2019-02-10T06:46:28.431Z,63.70
2019-02-10T06:49:03.446Z,63.40
2019-02-10T06:51:39.678Z,63.30
2019-02-10T06:54:14.644Z,63.00
2019-02-10T06:56:48.588Z,62.80
2019-02-10T06:59:30.615Z,62.50
2019-02-10T07:02:06.809Z,62.30
2019-02-10T07:04:37.665Z,62.20
2019-02-10T07:07:08.853Z,62.20
2019-02-10T07:09:43.511Z,62.20
2019-02-10T07:12:51.285Z,62.90
2019-02-10T07:16:33.633Z,62.50
2019-02-10T07:20:16.962Z,62.50
2019-02-10T07:23:44.606Z,62.70
2019-02-10T07:26:49.777Z,63.00
2019-02-10T07:30:36.884Z,63.40
2019-02-10T07:33:44.391Z,63.80
2019-02-10T07:36:56.318Z,63.90
2019-02-10T07:40:06.665Z,64.30
2019-02-10T07:42:52.482Z,64.70
2019-02-10T07:46:18.150Z,64.70
2019-02-10T07:49:48.206Z,64.80
2019-02-10T07:53:08.055Z,65.30
2019-02-10T07:57:10.773Z,65.50
2019-02-10T07:59:47.736Z,65.70
2019-02-10T08:03:28.335Z,65.80
2019-02-10T08:06:27.565Z,66.10
2019-02-10T08:09:39.412Z,66.20
2019-02-10T08:13:14.269Z,67.10
2019-02-10T08:16:00.561Z,66.50
2019-02-10T08:19:06.754Z,66.70
2019-02-10T08:22:46.197Z,67.00
2019-02-10T08:25:57.177Z,67.10
2019-02-10T08:29:21.769Z,67.60
2019-02-10T08:32:42.719Z,67.30
2019-02-10T08:36:31.300Z,67.50
2019-02-10T08:39:59.473Z,67.60
2019-02-10T08:43:38.484Z,67.40
2019-02-10T08:46:41.100Z,67.20
2019-02-10T08:50:30.849Z,66.70
2019-02-10T08:53:42.782Z,66.30
2019-02-10T08:56:18.226Z,65.90
2019-02-10T08:58:51.356Z,65.60
2019-02-10T09:01:23.563Z,65.70
2019-02-10T09:03:56.542Z,65.50
2019-02-10T09:06:30.177Z,65.10
2019-02-10T09:09:02.629Z,65.00
2019-02-10T09:11:33.734Z,64.70
2019-02-10T09:14:04.486Z,64.40
2019-02-10T09:16:38.724Z,64.30
2019-02-10T09:19:16.515Z,64.10
2019-02-10T09:21:49.084Z,64.00
2019-02-10T09:24:21.354Z,64.00
2019-02-10T09:26:52.902Z,64.00
2019-02-10T09:29:23.650Z,63.90
2019-02-10T09:31:54.586Z,63.60
2019-02-10T09:34:25.336Z,63.60
2019-02-10T09:36:56.151Z,63.40
2019-02-10T09:39:28.775Z,63.30
2019-02-10T09:42:00.718Z,63.30
2019-02-10T09:44:34.322Z,63.20
2019-02-10T09:47:13.935Z,63.90
2019-02-10T09:49:46.203Z,63.20
2019-02-10T09:52:19.308Z,63.30
2019-02-10T09:54:52.292Z,63.30
2019-02-10T09:57:31.232Z,63.40
2019-02-10T10:00:04.719Z,63.30
2019-02-10T10:02:51.622Z,63.40
2019-02-10T10:05:30.776Z,64.20
2019-02-10T10:08:37.225Z,63.10
2019-02-10T10:11:02.834Z,63.60
2019-02-10T10:13:36.625Z,63.70
2019-02-10T10:16:08.142Z,63.90
2019-02-10T10:18:44.842Z,64.20
2019-02-10T10:21:17.763Z,64.40
2019-02-10T10:23:58.934Z,64.70
2019-02-10T10:26:30.092Z,64.80
2019-02-10T10:29:03.474Z,65.00
2019-02-10T10:31:40.589Z,65.10
2019-02-10T10:34:25.005Z,65.10
2019-02-10T10:36:58.697Z,65.30
2019-02-10T10:39:34.954Z,65.30
2019-02-10T10:42:09.945Z,65.30
2019-02-10T10:44:45.000Z,65.30
2019-02-10T10:47:16.329Z,65.30
2019-02-10T10:49:50.241Z,65.30
2019-02-10T10:52:22.652Z,66.00
2019-02-10T10:54:59.229Z,65.30
2019-02-10T10:57:36.076Z,65.20
2019-02-10T11:00:11.729Z,65.20
2019-02-10T11:02:50.784Z,64.10
2019-02-10T11:05:34.072Z,64.10
2019-02-10T11:08:21.216Z,63.90
2019-02-10T11:10:49.547Z,63.80
2019-02-10T11:13:42.886Z,63.70
2019-02-10T11:16:18.261Z,63.60
2019-02-10T11:18:52.744Z,63.40
2019-02-10T11:21:26.668Z,63.20
2019-02-10T11:24:03.155Z,62.90
2019-02-10T11:26:37.679Z,62.80
2019-02-10T11:29:14.193Z,62.90
2019-02-10T11:31:44.157Z,62.60
2019-02-10T11:34:17.698Z,62.50
2019-02-10T11:36:54.165Z,62.40
2019-02-10T11:39:33.909Z,62.30
2019-02-10T11:42:07.400Z,62.20
2019-02-10T11:44:59.786Z,62.30
2019-02-10T11:48:03.068Z,62.20
2019-02-10T11:51:14.481Z,62.30
2019-02-10T11:55:32.135Z,62.40
2019-02-10T11:57:15.228Z,62.60
2019-02-10T12:00:24.021Z,62.40
2019-02-10T12:03:21.744Z,63.20
2019-02-10T12:06:41.987Z,62.50
2019-02-10T12:09:29.855Z,62.50
2019-02-10T12:15:37.328Z,62.40
2019-02-10T12:21:41.313Z,62.50
2019-02-10T12:24:18.935Z,62.90
2019-02-10T12:26:50.387Z,62.10
2019-02-10T12:29:26.665Z,62.10
2019-02-10T12:32:34.219Z,62.10
2019-02-10T12:35:39.024Z,62.10
2019-02-10T12:38:23.239Z,62.30
2019-02-10T12:41:04.460Z,62.40
2019-02-10T12:43:42.359Z,62.50
2019-02-10T12:46:21.568Z,62.50
2019-02-10T12:49:03.702Z,62.00
2019-02-10T12:51:34.908Z,62.20
2019-02-10T12:54:25.890Z,62.00
2019-02-10T12:57:07.506Z,62.00
2019-02-10T13:00:12.620Z,61.90
2019-02-10T13:02:52.490Z,61.80
2019-02-10T13:05:31.925Z,61.90
2019-02-10T13:08:28.293Z,61.90
2019-02-10T13:11:15.818Z,61.90
2019-02-10T13:13:49.231Z,61.90
2019-02-10T13:16:35.386Z,61.80
2019-02-10T13:19:13.514Z,61.70
2019-02-10T13:21:53.506Z,61.60
2019-02-10T13:24:49.673Z,61.50
2019-02-10T13:27:23.396Z,61.40
2019-02-10T13:30:03.917Z,61.60
2019-02-10T13:32:46.672Z,62.60
2019-02-10T13:35:35.685Z,62.00
2019-02-10T13:38:16.044Z,61.90
2019-02-10T13:40:58.454Z,62.10
2019-02-10T13:43:45.123Z,62.00
2019-02-10T13:46:25.021Z,62.00
2019-02-10T13:49:04.311Z,62.00
2019-02-10T13:51:38.637Z,62.00
2019-02-10T13:54:55.022Z,61.90
2019-02-10T13:58:43.364Z,61.70
2019-02-10T14:00:55.892Z,61.40
2019-02-10T14:03:34.502Z,60.80
2019-02-10T14:06:07.540Z,60.50
2019-02-10T14:08:46.032Z,60.20
2019-02-10T14:11:20.787Z,59.90
2019-02-10T14:13:54.885Z,59.80
2019-02-10T14:16:37.099Z,60.40
2019-02-10T14:19:24.876Z,59.50
2019-02-10T14:21:59.202Z,59.20
2019-02-10T14:25:03.073Z,59.20
2019-02-10T14:27:42.135Z,59.00
2019-02-10T14:30:21.366Z,58.90
2019-02-10T14:32:59.801Z,58.80
2019-02-10T14:35:43.550Z,58.60
2019-02-10T14:38:50.365Z,58.40
2019-02-10T14:42:08.185Z,58.40
2019-02-10T14:44:36.457Z,58.00
2019-02-10T14:47:16.510Z,57.60
2019-02-10T14:49:51.043Z,57.70
2019-02-10T14:52:26.800Z,57.40
2019-02-10T14:55:07.944Z,57.20
2019-02-10T15:00:45.311Z,57.00
2019-02-10T15:03:22.574Z,57.00
2019-02-10T15:06:33.342Z,57.20
2019-02-10T15:10:20.943Z,57.20
2019-02-10T15:12:57.579Z,57.20
2019-02-10T15:16:56.561Z,57.00
2019-02-10T15:19:34.710Z,57.10
2019-02-10T15:29:09.746Z,57.00
2019-02-10T15:31:53.755Z,57.00
2019-02-10T15:34:45.395Z,56.90
2019-02-10T15:37:38.151Z,56.70
2019-02-10T15:44:51.179Z,56.30
2019-02-10T15:47:45.148Z,56.30
2019-02-10T15:52:35.079Z,56.90
2019-02-10T15:53:20.901Z,56.50
2019-02-10T15:56:30.704Z,56.50
2019-02-10T15:59:32.703Z,56.30
2019-02-10T16:02:47.076Z,56.50
2019-02-10T16:09:20.415Z,56.90
2019-02-10T16:12:26.172Z,57.10
2019-02-10T16:15:19.758Z,57.40
2019-02-10T16:17:52.560Z,57.70
2019-02-10T16:20:25.314Z,57.80
2019-02-10T16:23:05.665Z,58.20
2019-02-10T16:25:35.442Z,58.30
2019-02-10T16:28:12.242Z,58.40
2019-02-10T16:30:43.516Z,58.70
2019-02-10T16:33:22.486Z,58.90
2019-02-10T16:36:28.420Z,59.10
2019-02-10T16:39:04.064Z,59.20
2019-02-10T16:42:01.278Z,59.50
2019-02-10T16:44:53.682Z,59.80
2019-02-10T16:47:40.703Z,60.10
2019-02-10T16:50:26.629Z,60.40
2019-02-10T16:53:46.255Z,60.50
2019-02-10T16:59:27.050Z,61.00
2019-02-10T17:02:16.127Z,61.30
2019-02-10T17:05:20.125Z,61.50
2019-02-10T17:07:59.849Z,61.60
2019-02-10T17:11:14.254Z,61.70
2019-02-10T17:13:33.483Z,62.20
2019-02-10T17:16:30.158Z,62.20
2019-02-10T17:23:15.683Z,62.70
2019-02-10T17:29:59.226Z,63.20
2019-02-10T17:32:52.739Z,63.60
2019-02-10T17:35:25.106Z,63.70
2019-02-10T17:38:05.069Z,64.10
2019-02-10T17:41:31.844Z,64.30
2019-02-10T17:43:59.419Z,64.50
2019-02-10T17:46:55.959Z,64.80
2019-02-10T17:50:17.144Z,64.90
2019-02-10T17:56:34.000Z,65.20
2019-02-10T17:59:13.242Z,65.30
2019-02-10T18:02:06.015Z,65.80
2019-02-10T18:04:57.123Z,65.70
2019-02-10T18:07:35.239Z,65.70
2019-02-10T18:13:28.184Z,66.10
2019-02-10T18:16:19.202Z,66.30
2019-02-10T18:19:50.578Z,66.40
2019-02-10T18:23:08.394Z,66.50
2019-02-10T18:26:22.560Z,66.70
2019-02-10T18:29:40.591Z,67.10
2019-02-10T18:32:39.423Z,67.40
2019-02-10T18:35:51.850Z,67.50
2019-02-10T18:38:36.034Z,67.60
2019-02-10T18:41:39.362Z,68.40
2019-02-10T18:44:42.074Z,67.60
2019-02-10T18:47:35.141Z,67.30
2019-02-10T18:50:31.569Z,66.80
2019-02-10T18:53:21.833Z,66.50
2019-02-10T18:56:05.057Z,65.90
2019-02-10T18:58:54.598Z,66.10
2019-02-10T19:09:03.936Z,65.00
2019-02-10T19:10:53.572Z,65.70
2019-02-10T19:12:51.075Z,64.60
2019-02-10T19:15:29.999Z,64.40
2019-02-10T19:18:27.013Z,64.20
2019-02-10T19:21:14.568Z,63.70
2019-02-10T19:24:04.435Z,63.50
2019-02-10T19:27:37.899Z,63.30
2019-02-10T19:30:41.461Z,63.10
2019-02-10T19:33:23.380Z,62.90
2019-02-10T19:36:27.639Z,62.80
2019-02-10T19:39:14.671Z,62.80
2019-02-10T19:42:28.958Z,62.80
2019-02-10T19:45:21.657Z,62.70
2019-02-10T19:48:29.954Z,62.70
2019-02-10T19:51:43.850Z,63.70
2019-02-10T19:54:27.469Z,63.60
2019-02-10T19:57:18.993Z,63.70
2019-02-10T20:00:32.139Z,63.60
2019-02-10T20:03:21.075Z,63.40
2019-02-10T20:06:34.894Z,63.30
2019-02-10T20:09:22.368Z,63.30
2019-02-10T20:12:27.620Z,63.30
2019-02-10T20:15:23.765Z,63.40
2019-02-10T20:18:15.981Z,63.20
2019-02-10T20:21:14.511Z,63.10
2019-02-10T20:23:57.689Z,63.20
2019-02-10T20:26:46.234Z,63.10
2019-02-10T20:29:48.275Z,63.10
2019-02-10T20:32:45.034Z,63.20
2019-02-10T20:35:42.189Z,63.30
2019-02-10T20:38:40.018Z,63.80
2019-02-10T20:41:34.739Z,63.40
2019-02-10T20:44:22.001Z,63.50
2019-02-10T20:47:11.942Z,63.50
2019-02-10T20:50:00.587Z,63.30
2019-02-10T20:52:46.349Z,63.10
2019-02-10T20:55:35.237Z,63.10
2019-02-10T20:58:27.796Z,63.10
2019-02-10T21:01:27.591Z,63.00
2019-02-10T21:04:38.870Z,62.80
2019-02-10T21:07:07.679Z,62.90
2019-02-10T21:10:16.463Z,62.90
2019-02-10T21:13:09.643Z,62.80
2019-02-10T21:15:59.163Z,62.90
2019-02-10T21:18:49.274Z,62.80
2019-02-10T21:21:43.090Z,62.70
2019-02-10T21:24:38.473Z,62.90
2019-02-10T21:27:33.030Z,62.70
2019-02-10T21:30:24.746Z,62.60
2019-02-10T21:33:18.143Z,62.60
2019-02-10T21:36:14.105Z,62.60
2019-02-10T21:39:06.969Z,62.40
2019-02-10T21:42:43.149Z,62.50
2019-02-10T21:45:36.404Z,62.70
2019-02-10T21:48:25.025Z,63.10
2019-02-10T21:50:56.039Z,63.50
2019-02-10T21:53:31.431Z,63.60
2019-02-10T21:56:09.545Z,63.70
2019-02-10T21:58:47.383Z,63.80
2019-02-10T22:01:25.694Z,63.60
2019-02-10T22:04:11.279Z,63.40
2019-02-10T22:06:38.841Z,63.20
2019-02-10T22:09:15.898Z,63.10
2019-02-10T22:11:47.132Z,62.80
2019-02-10T22:14:35.783Z,62.30
2019-02-10T22:18:03.887Z,61.70
2019-02-10T22:20:09.332Z,61.60
2019-02-10T22:22:48.928Z,61.50
2019-02-10T22:25:42.451Z,61.40
2019-02-10T22:28:17.834Z,61.20
2019-02-10T22:30:51.656Z,61.00
2019-02-10T22:33:29.436Z,61.70
2019-02-10T22:36:06.940Z,60.80
2019-02-10T22:38:40.513Z,60.80
2019-02-10T22:41:20.879Z,60.80
2019-02-10T22:44:07.478Z,60.80
2019-02-10T22:47:39.427Z,60.70
2019-02-10T22:49:26.732Z,60.80
2019-02-10T22:52:15.335Z,60.80
2019-02-10T22:55:12.127Z,60.90
2019-02-10T22:57:54.696Z,61.00
2019-02-10T23:00:48.638Z,60.90
2019-02-10T23:03:27.854Z,61.10
2019-02-10T23:06:48.033Z,61.10
2019-02-10T23:08:39.109Z,61.20
2019-02-10T23:11:12.011Z,61.20
2019-02-10T23:13:49.333Z,61.20
2019-02-10T23:16:21.569Z,61.20
2019-02-10T23:18:55.909Z,61.20
2019-02-10T23:21:37.596Z,61.30
2019-02-10T23:24:48.635Z,61.30
2019-02-10T23:27:19.627Z,61.30
2019-02-10T23:30:11.384Z,61.60
2019-02-10T23:32:42.400Z,61.70
2019-02-10T23:35:17.835Z,61.80
2019-02-10T23:38:13.445Z,61.90
2019-02-10T23:40:44.555Z,62.20
2019-02-10T23:43:17.673Z,62.40
2019-02-10T23:46:17.033Z,62.50
2019-02-10T23:48:54.010Z,62.70
2019-02-10T23:51:30.707Z,62.90
2019-02-10T23:54:22.512Z,63.10
2019-02-10T23:56:59.605Z,63.10
